Time;durP1;ratioP1;P1;durP2;ratioP2;P2;SDS_P1;SDS_P2;PMS_P1;PMS_P2;Temp;Humidity;BMP_temperature;BMP_pressure;BME280_temperature;BME280_humidity;BME280_pressure;Samples;Min_cycle;Max_cycle;Signal;HPM_P1;HPM_P2
2022/11/25 00:01:50;;;;;;;11.60;3.30;;;;;;;8.33;100.00;100917.31;5093540;28;20024;-35
2022/11/25 00:04:15;;;;;;;13.02;3.35;;;;;;;8.35;100.00;100910.69;5093152;28;20078;-35
2022/11/25 00:06:41;;;;;;;12.47;3.10;;;;;;;8.36;100.00;100917.75;5093729;28;20028;-35
2022/11/25 00:09:10;;;;;;;12.88;2.85;;;;;;;8.36;100.00;100907.00;5093607;28;20476;-34
2022/11/25 00:11:38;;;;;;;10.10;2.88;;;;;;;8.42;100.00;100911.50;5094101;28;20384;-35
2022/11/25 00:14:05;;;;;;;9.45;2.50;;;;;;;8.45;100.00;100913.78;5094345;28;20079;-35
2022/11/25 00:16:30;;;;;;;15.32;3.67;;;;;;;8.47;100.00;100916.25;5093069;28;20028;-35
2022/11/25 00:18:57;;;;;;;10.43;2.67;;;;;;;8.46;100.00;100915.44;5093771;28;20035;-35
2022/11/25 00:21:25;;;;;;;15.95;4.03;;;;;;;8.46;100.00;100901.13;5093272;28;20035;-35
2022/11/25 00:23:59;;;;;;;13.90;3.03;;;;;;;8.52;100.00;100900.25;5093400;28;20073;-35
2022/11/25 00:26:26;;;;;;;12.13;2.95;;;;;;;8.46;100.00;100891.19;5093501;28;20035;-35
2022/11/25 00:28:51;;;;;;;13.43;3.55;;;;;;;8.54;100.00;100891.94;5093939;28;20489;-35
2022/11/25 00:31:22;;;;;;;13.48;2.70;;;;;;;8.59;100.00;100894.81;5093152;28;20043;-35
2022/11/25 00:33:48;;;;;;;12.70;3.90;;;;;;;8.66;100.00;100896.44;5093012;28;20094;-34
2022/11/25 00:36:23;;;;;;;12.48;3.22;;;;;;;8.69;100.00;100897.91;5093564;28;20028;-34
2022/11/25 00:38:56;;;;;;;13.20;2.83;;;;;;;8.62;100.00;100883.63;5093623;28;20032;-35
2022/11/25 00:46:56;;;;;;;10.68;2.50;;;;;;;8.70;100.00;100894.16;5092943;28;20399;-35
2022/11/25 00:49:22;;;;;;;13.95;2.58;;;;;;;8.73;100.00;100891.00;5092918;28;20024;-35
2022/11/25 00:51:47;;;;;;;10.80;2.80;;;;;;;8.71;100.00;100885.84;5093399;28;20066;-34
2022/11/25 00:54:13;;;;;;;14.63;3.20;;;;;;;8.73;100.00;100891.00;5092736;28;20103;-34
2022/11/25 00:56:38;;;;;;;8.45;2.78;;;;;;;8.73;100.00;100893.69;5092472;28;20027;-34
2022/11/25 00:59:04;;;;;;;11.97;2.47;;;;;;;8.67;100.00;100881.91;5092886;28;20094;-35
2022/11/25 01:01:29;;;;;;;11.40;2.90;;;;;;;8.68;100.00;100886.25;5093018;28;20028;-35
2022/11/25 01:03:54;;;;;;;12.82;3.28;;;;;;;8.74;100.00;100893.50;5093188;28;20028;-35
2022/11/25 01:06:21;;;;;;;12.47;3.00;;;;;;;8.75;100.00;100894.31;5092417;28;20533;-34
2022/11/25 01:08:46;;;;;;;11.70;2.67;;;;;;;8.76;100.00;100899.50;5092740;28;20055;-35
2022/11/25 01:11:15;;;;;;;13.05;3.00;;;;;;;8.76;100.00;100887.88;5092859;28;20406;-34
2022/11/25 01:13:41;;;;;;;13.63;2.75;;;;;;;8.80;100.00;100893.69;5093079;28;20074;-34
2022/11/25 01:16:11;;;;;;;11.73;2.63;;;;;;;8.80;100.00;100893.69;5076086;28;20366;-35
2022/11/25 01:18:36;;;;;;;10.73;2.58;;;;;;;8.80;100.00;100893.69;5096742;28;20042;-35
2022/11/25 01:21:12;;;;;;;14.50;3.80;;;;;;;8.84;100.00;100897.59;5096611;28;20103;-35
2022/11/25 01:23:39;;;;;;;11.13;3.10;;;;;;;8.83;100.00;100890.53;5096610;28;20089;-35
2022/11/25 01:26:07;;;;;;;11.63;2.70;;;;;;;8.84;100.00;100895.72;5096620;28;20054;-35
2022/11/25 01:28:33;;;;;;;12.25;2.85;;;;;;;8.80;100.00;100889.09;5096609;28;20130;-35
2022/11/25 01:31:04;;;;;;;12.15;2.97;;;;;;;8.86;100.00;100899.00;5096600;28;20110;-34
2022/11/25 01:33:31;;;;;;;14.13;3.08;;;;;;;8.89;100.00;100906.69;5096985;28;20028;-35
2022/11/25 01:36:01;;;;;;;12.80;3.05;;;;;;;8.89;100.00;100909.38;5096422;28;20026;-35
2022/11/25 01:38:26;;;;;;;10.30;2.72;;;;;;;8.83;100.00;100896.75;5097134;28;20051;-35
2022/11/25 01:40:52;;;;;;;11.98;3.30;;;;;;;8.87;100.00;100907.94;5095980;28;20032;-35
2022/11/25 01:43:17;;;;;;;12.53;3.00;;;;;;;8.93;100.00;100907.03;5096849;28;20024;-35
2022/11/25 01:45:42;;;;;;;11.73;2.73;;;;;;;8.94;100.00;100912.25;5096180;28;20115;-35
2022/11/25 01:48:15;;;;;;;10.35;2.70;;;;;;;8.96;100.00;100931.72;5096447;28;20076;-34
2022/11/25 01:50:42;;;;;;;13.02;2.92;;;;;;;8.90;100.00;100908.31;5095855;28;20388;-35
2022/11/25 01:53:10;;;;;;;10.10;2.65;;;;;;;8.98;100.00;100940.44;5096189;28;20028;-35
2022/11/25 01:55:39;;;;;;;11.32;2.75;;;;;;;8.90;100.00;100918.28;5095916;28;20020;-34
2022/11/25 01:58:13;;;;;;;10.35;2.65;;;;;;;8.96;100.00;100931.72;5096499;28;20036;-35
2022/11/25 02:00:38;;;;;;;12.13;3.08;;;;;;;8.95;100.00;100926.53;5095905;28;20031;-35
2022/11/25 02:03:06;;;;;;;13.93;3.17;;;;;;;8.98;100.00;100937.72;5096753;28;20036;-35
2022/11/25 02:06:01;;;;;;;14.45;3.08;;;;;;;9.01;100.00;100947.25;5095515;28;20032;-35
2022/11/25 02:08:28;;;;;;;10.23;3.03;;;;;;;9.01;100.00;100939.97;5096296;28;20107;-35
2022/11/25 02:10:54;;;;;;;9.88;3.08;;;;;;;9.02;100.00;100938.09;5095402;28;20533;-35
2022/11/25 02:13:20;;;;;;;;;;;;;;;9.06;100.00;100944.72;5095013;28;20058;-35
2022/11/25 02:15:45;;;;;;;9.77;2.40;;;;;;;9.05;100.00;100947.66;5095556;28;20240;-35
2022/11/25 02:18:10;;;;;;;8.73;2.60;;;;;;;8.98;100.00;100945.00;5095642;28;20115;-35
2022/11/25 02:20:38;;;;;;;14.77;2.37;;;;;;;9.06;100.00;100968.16;5110620;28;20485;-35
2022/11/25 02:23:25;;;;;;;8.88;2.70;;;;;;;9.05;100.00;100964.66;5095128;28;20059;-35
2022/11/25 02:25:51;;;;;;;12.82;3.20;;;;;;;9.03;100.00;100969.44;5095408;28;20552;-35
2022/11/25 02:28:18;;;;;;;10.93;2.83;;;;;;;9.02;100.00;100965.91;5094686;28;20035;-35
2022/11/25 02:30:45;;;;;;;10.02;2.58;;;;;;;9.01;100.00;100953.47;5095286;28;20480;-35
2022/11/25 02:33:10;;;;;;;13.32;3.50;;;;;;;9.00;100.00;100961.78;5095805;28;20028;-35
2022/11/25 02:35:53;;;;;;;12.45;2.58;;;;;;;8.99;100.00;100974.44;5095353;28;20094;-35
2022/11/25 02:38:26;;;;;;;9.75;2.38;;;;;;;8.95;100.00;100967.81;5096057;28;20024;-35
2022/11/25 02:41:02;;;;;;;7.70;2.05;;;;;;;8.93;100.00;100972.63;5095166;28;20028;-35
2022/11/25 02:43:29;;;;;;;10.15;3.28;;;;;;;8.88;100.00;100961.66;5095274;28;20028;-35
2022/11/25 02:45:54;;;;;;;9.60;2.25;;;;;;;8.82;100.00;100958.97;5095134;28;20111;-34
2022/11/25 02:48:19;;;;;;;8.57;1.90;;;;;;;8.81;100.00;100968.94;5095405;28;20056;-35
2022/11/25 02:50:45;;;;;;;13.13;3.27;;;;;;;8.83;100.00;100983.03;5095137;28;20028;-35
2022/11/25 02:53:10;;;;;;;9.70;2.57;;;;;;;8.81;100.00;100981.59;5095455;28;20613;-35
2022/11/25 02:55:35;;;;;;;9.60;2.60;;;;;;;8.74;100.00;100978.97;5094756;28;20028;-35
2022/11/25 02:58:01;;;;;;;12.80;2.40;;;;;;;8.69;100.00;100968.00;5094922;28;20024;-34
2022/11/25 03:00:26;;;;;;;7.87;1.80;;;;;;;8.72;100.00;100967.53;5094733;28;20137;-34
2022/11/25 03:02:53;;;;;;;7.50;2.10;;;;;;;8.70;100.00;100962.38;5094784;28;20028;-34
2022/11/25 03:05:18;;;;;;;7.10;2.00;;;;;;;8.68;100.00;100952.84;5094685;28;20035;-34
2022/11/25 03:07:44;;;;;;;7.00;1.92;;;;;;;8.65;100.00;100926.31;5095201;28;20032;-34
2022/11/25 03:10:09;;;;;;;8.13;2.47;;;;;;;8.47;100.00;100883.91;5094374;28;20024;-34
2022/11/25 03:12:34;;;;;;;6.72;2.25;;;;;;;8.58;100.00;100914.75;5094676;28;20514;-34
2022/11/25 03:15:00;;;;;;;5.13;1.57;;;;;;;8.57;100.00;100913.91;5094394;28;20032;-34
2022/11/25 03:17:25;;;;;;;6.70;1.90;;;;;;;8.58;100.00;100939.00;5094176;28;20076;-34
2022/11/25 03:19:50;;;;;;;8.23;2.17;;;;;;;8.57;100.00;100948.97;5094877;28;20380;-34
2022/11/25 03:22:16;;;;;;;6.57;1.63;;;;;;;8.57;100.00;100957.03;5094376;28;20024;-35
2022/11/25 03:24:41;;;;;;;10.60;2.60;;;;;;;8.49;100.00;100958.13;5093994;28;20060;-35
2022/11/25 03:27:06;;;;;;;7.17;1.80;;;;;;;8.45;100.00;100959.59;5094608;28;20119;-35
2022/11/25 03:29:32;;;;;;;6.47;1.80;;;;;;;8.52;100.00;100965.78;5094313;28;20468;-34
2022/11/25 03:31:57;;;;;;;10.27;2.07;;;;;;;8.48;100.00;100959.16;5094496;28;20028;-35
2022/11/25 03:34:22;;;;;;;8.63;1.97;;;;;;;8.45;100.00;100950.69;5093871;28;20024;-35
2022/11/25 03:36:48;;;;;;;6.07;1.53;;;;;;;8.45;100.00;100962.28;5109682;28;20494;-35
2022/11/25 03:39:13;;;;;;;7.73;2.00;;;;;;;8.39;100.00;100960.44;5093280;28;20022;-35
2022/11/25 03:41:38;;;;;;;6.40;1.63;;;;;;;8.45;100.00;100983.03;5093968;28;20058;-35
2022/11/25 03:44:04;;;;;;;7.87;1.87;;;;;;;8.43;100.00;100980.53;5094222;28;20051;-35
2022/11/25 03:46:29;;;;;;;7.67;2.00;;;;;;;8.42;100.00;100988.84;5094262;28;20093;-35
2022/11/25 03:48:54;;;;;;;9.43;2.60;;;;;;;8.40;100.00;100982.84;5094600;28;20028;-35
2022/11/25 03:51:20;;;;;;;12.27;2.40;;;;;;;8.41;100.00;100996.09;5094284;28;20268;-35
2022/11/25 03:53:45;;;;;;;5.73;1.80;;;;;;;8.35;100.00;100988.84;5094316;28;20067;-35
2022/11/25 03:56:10;;;;;;;8.53;2.03;;;;;;;8.33;100.00;100998.16;5093762;28;20028;-35
2022/11/25 03:58:36;;;;;;;6.93;1.70;;;;;;;8.34;100.00;100994.41;5094069;28;20063;-35
2022/11/25 04:01:02;;;;;;;7.70;1.93;;;;;;;8.30;100.00;100994.03;5093543;28;20103;-35
2022/11/25 04:03:28;;;;;;;6.82;2.13;;;;;;;8.29;100.00;100997.75;5093764;28;20076;-35
2022/11/25 04:05:53;;;;;;;10.70;2.40;;;;;;;8.24;100.00;101001.06;5093887;28;20119;-35
2022/11/25 04:08:18;;;;;;;9.57;2.00;;;;;;;8.21;100.00;100998.81;5093885;28;20106;-35
2022/11/25 04:10:44;;;;;;;9.33;1.93;;;;;;;8.18;100.00;101010.00;5093293;28;20276;-35
2022/11/25 04:13:09;;;;;;;7.00;1.90;;;;;;;8.15;100.00;101005.06;5094069;28;20040;-35
2022/11/25 04:15:35;;;;;;;13.53;3.53;;;;;;;8.07;100.00;101002.59;5093235;28;20357;-35
2022/11/25 04:18:00;;;;;;;8.65;2.45;;;;;;;8.13;100.00;101023.28;5093927;28;20035;-35
2022/11/25 04:20:26;;;;;;;6.93;1.30;;;;;;;8.12;100.00;101018.94;5092136;28;20039;-35
2022/11/25 04:22:51;;;;;;;4.75;1.30;;;;;;;8.08;100.00;101023.09;5093582;28;20031;-35
2022/11/25 04:25:16;;;;;;;4.77;1.47;;;;;;;8.06;100.00;101025.19;5093270;28;20081;-35
2022/11/25 04:27:42;;;;;;;7.23;1.67;;;;;;;8.06;100.00;101035.94;5093289;28;20431;-35
2022/11/25 04:30:08;;;;;;;5.70;1.67;;;;;;;8.05;100.00;101038.84;5093401;28;20262;-35
2022/11/25 04:32:36;;;;;;;7.25;1.60;;;;;;;8.05;100.00;101044.22;5093214;28;20472;-35
2022/11/25 04:35:01;;;;;;;4.45;1.20;;;;;;;8.08;100.00;101049.19;5092847;28;20035;-35
2022/11/25 04:37:27;;;;;;;3.20;1.20;;;;;;;8.06;100.00;101059.38;5093392;28;20028;-35
2022/11/25 04:39:52;;;;;;;4.63;1.40;;;;;;;8.06;100.00;101070.13;5093159;28;20035;-35
2022/11/25 04:42:38;;;;;;;2.37;0.87;;;;;;;8.05;100.00;101063.91;5093782;28;20099;-35
2022/11/25 04:45:07;;;;;;;5.45;1.70;;;;;;;8.04;100.00;101072.19;5093268;28;20393;-35
2022/11/25 04:47:32;;;;;;;6.60;1.75;;;;;;;8.03;100.00;101065.97;5093800;28;20032;-35
2022/11/25 04:49:58;;;;;;;4.37;1.00;;;;;;;7.93;100.00;101062.88;5092956;28;20027;-35
2022/11/25 04:52:23;;;;;;;3.07;0.87;;;;;;;7.95;100.00;101064.34;5092714;28;20286;-35
2022/11/25 04:54:49;;;;;;;5.20;0.80;;;;;;;7.98;100.00;101072.00;5093470;28;20085;-35
2022/11/25 04:57:14;;;;;;;3.23;0.90;;;;;;;7.95;100.00;101064.34;5092656;28;20051;-35
2022/11/25 04:59:41;;;;;;;3.47;1.00;;;;;;;7.91;100.00;101055.03;5093027;28;20032;-35
2022/11/25 05:02:22;;;;;;;4.07;1.08;;;;;;;7.96;100.00;101073.25;5092467;28;20020;-35
2022/11/25 05:04:49;;;;;;;3.42;0.90;;;;;;;7.95;100.00;101088.59;5093571;28;20031;-35
2022/11/25 05:07:15;;;;;;;5.13;0.88;;;;;;;7.93;100.00;101087.94;5093140;28;20035;-35
2022/11/25 05:09:41;;;;;;;2.55;0.80;;;;;;;7.91;100.00;101086.50;5093362;28;20028;-35
2022/11/25 05:12:09;;;;;;;3.15;0.90;;;;;;;7.88;100.00;101093.13;5091424;28;20028;-35
2022/11/25 05:14:35;;;;;;;3.40;0.90;;;;;;;7.83;100.00;101092.09;5093641;28;20410;-35
2022/11/25 05:17:05;;;;;;;3.93;1.00;;;;;;;7.83;100.00;101094.78;5092729;28;20089;-35
2022/11/25 05:19:30;;;;;;;3.97;1.10;;;;;;;7.78;100.00;101092.72;5093027;28;20046;-35
2022/11/25 05:21:55;;;;;;;1.60;0.63;;;;;;;7.77;100.00;101096.44;5092652;28;20409;-35
2022/11/25 05:24:21;;;;;;;4.33;1.03;;;;;;;7.75;100.00;101090.41;5092684;28;20039;-35
2022/11/25 05:26:46;;;;;;;5.80;1.23;;;;;;;7.74;100.00;101099.53;5092627;28;20036;-35
2022/11/25 05:29:11;;;;;;;3.77;0.80;;;;;;;7.70;100.00;101099.13;5092922;28;20258;-35
2022/11/25 05:31:37;;;;;;;5.03;1.30;;;;;;;7.62;100.00;101083.19;5092930;28;20111;-35
2022/11/25 05:34:03;;;;;;;5.87;1.53;;;;;;;7.69;100.00;101104.72;5092878;28;20103;-35
2022/11/25 05:36:28;;;;;;;3.05;1.00;;;;;;;7.66;100.00;101099.72;5092989;28;20024;-35
2022/11/25 05:38:57;;;;;;;4.35;1.40;;;;;;;7.65;100.00;101109.66;5093083;28;20035;-35
2022/11/25 05:41:22;;;;;;;5.53;2.38;;;;;;;7.59;100.00;101110.50;5092116;28;20024;-35
2022/11/25 05:43:48;;;;;;;5.05;1.65;;;;;;;7.56;100.00;101116.28;5092519;28;20059;-35
2022/11/25 05:46:14;;;;;;;3.23;1.20;;;;;;;7.54;100.00;101106.75;5092408;28;20035;-35
2022/11/25 05:48:39;;;;;;;5.18;1.63;;;;;;;7.47;100.00;101104.91;5092765;28;20032;-35
2022/11/25 05:51:04;;;;;;;4.17;1.50;;;;;;;7.45;100.00;101108.81;5092347;28;20165;-35
2022/11/25 05:53:31;;;;;;;5.78;1.58;;;;;;;7.44;100.00;101109.84;5092754;28;20444;-35
2022/11/25 05:55:58;;;;;;;;;;;;;;;7.45;100.00;101119.56;5092796;28;20020;-35
2022/11/25 05:58:24;;;;;;;6.45;1.52;;;;;;;7.40;100.00;101119.34;5092673;28;20412;-35
2022/11/25 06:00:50;;;;;;;4.35;1.60;;;;;;;7.37;100.00;101112.53;5092282;28;20032;-35
2022/11/25 06:03:15;;;;;;;4.70;1.98;;;;;;;7.40;100.00;101124.75;5094144;28;20035;-35
2022/11/25 06:05:41;;;;;;;4.50;1.60;;;;;;;7.39;100.00;101129.28;5095967;28;20032;-35
2022/11/25 06:08:07;;;;;;;5.72;2.13;;;;;;;7.35;100.00;101132.59;5095262;28;20488;-35
2022/11/25 06:10:32;;;;;;;7.43;2.10;;;;;;;7.31;100.00;101129.47;5095862;28;20517;-35
2022/11/25 06:12:58;;;;;;;5.40;2.20;;;;;;;7.30;100.00;101137.75;5095839;28;20084;-35
2022/11/25 06:15:24;;;;;;;9.00;2.30;;;;;;;7.29;100.00;101139.63;5095478;28;20119;-35
2022/11/25 06:17:49;;;;;;;6.13;1.95;;;;;;;7.30;100.00;101143.97;5096211;28;20372;-35
2022/11/25 06:20:15;;;;;;;5.57;2.00;;;;;;;7.30;100.00;101143.13;5095764;28;20061;-35
2022/11/25 06:22:40;;;;;;;6.43;2.33;;;;;;;7.24;100.00;101134.00;5096046;28;20839;-35
2022/11/25 06:25:06;;;;;;;7.47;2.50;;;;;;;7.16;100.00;101126.13;5095503;28;20028;-35
2022/11/25 06:27:32;;;;;;;11.43;4.32;;;;;;;7.18;100.00;101156.34;5094392;28;20467;-35
2022/11/25 06:29:58;;;;;;;6.47;2.28;;;;;;;7.09;100.00;101144.09;5095320;28;20464;-35
2022/11/25 06:32:23;;;;;;;5.40;2.10;;;;;;;7.17;100.00;101160.91;5095641;28;20032;-35
2022/11/25 06:34:49;;;;;;;6.25;2.65;;;;;;;7.15;100.00;101154.03;5094637;28;20115;-35
2022/11/25 06:37:14;;;;;;;7.10;2.67;;;;;;;7.14;100.00;101158.59;5096025;28;20028;-35
2022/11/25 06:39:39;;;;;;;5.80;2.20;;;;;;;7.23;100.00;101164.63;5095161;28;20059;-35
2022/11/25 06:42:04;;;;;;;5.60;2.07;;;;;;;7.18;100.00;101167.09;5095232;28;20111;-35
2022/11/25 06:44:30;;;;;;;7.80;2.57;;;;;;;7.17;100.00;101171.66;5095417;28;20028;-35
2022/11/25 06:46:55;;;;;;;6.27;2.40;;;;;;;7.17;100.00;101165.41;5094999;28;20115;-35
2022/11/25 06:49:20;;;;;;;6.50;2.20;;;;;;;7.11;100.00;101163.53;5095022;28;20034;-35
2022/11/25 06:51:48;;;;;;;9.47;2.03;;;;;;;7.17;100.00;101166.28;5095365;28;20026;-35
2022/11/25 06:54:13;;;;;;;4.93;2.10;;;;;;;7.14;100.00;101173.91;5095196;28;20028;-35
2022/11/25 06:56:39;;;;;;;6.57;2.30;;;;;;;7.11;100.00;101177.81;5094773;28;20337;-36
2022/11/25 06:59:05;;;;;;;5.37;2.10;;;;;;;7.08;100.00;101172.84;5095029;28;20035;-35
2022/11/25 07:01:31;;;;;;;6.57;2.10;;;;;;;6.95;100.00;101162.84;5095146;28;20378;-35
2022/11/25 07:04:03;;;;;;;7.35;2.20;;;;;;;7.04;100.00;101189.59;5095579;28;20035;-35
2022/11/25 07:06:29;;;;;;;5.45;2.15;;;;;;;7.02;100.00;101188.94;5094442;28;20035;-35
2022/11/25 07:08:55;;;;;;;3.65;1.63;;;;;;;7.00;100.00;101201.75;5093818;28;20036;-35
2022/11/25 07:11:23;;;;;;;6.40;2.00;;;;;;;6.99;100.00;101194.72;5094497;28;20066;-35
2022/11/25 07:13:58;;;;;;;4.18;1.92;;;;;;;6.97;100.00;101211.03;5094985;28;20123;-35
2022/11/25 07:16:24;;;;;;;5.75;1.65;;;;;;;6.89;100.00;101195.91;5094264;28;20028;-35
2022/11/25 07:18:50;;;;;;;6.22;1.95;;;;;;;6.92;100.00;101211.63;5094809;28;20020;-35
2022/11/25 07:21:19;;;;;;;6.78;2.17;;;;;;;6.82;100.00;101197.72;5094197;28;20032;-35
2022/11/25 07:23:45;;;;;;;7.43;2.30;;;;;;;6.89;100.00;101222.81;5094261;28;20051;-35
2022/11/25 07:26:10;;;;;;;;;;;;;;;6.95;100.00;101234.63;5094827;28;20036;-35
2022/11/25 07:28:37;;;;;;;8.60;2.30;;;;;;;6.90;100.00;101239.75;5094939;28;19962;-35
2022/11/25 07:31:05;;;;;;;6.32;2.08;;;;;;;6.87;100.00;101232.06;5094274;28;20032;-35
2022/11/25 07:33:30;;;;;;;7.18;2.13;;;;;;;6.82;100.00;101237.22;5094560;28;20081;-35
2022/11/25 07:36:00;;;;;;;6.93;2.90;;;;;;;6.85;100.00;101247.59;5094242;28;20456;-35
2022/11/25 07:38:26;;;;;;;6.90;3.15;;;;;;;6.82;100.00;101253.34;5094429;28;20024;-36
2022/11/25 07:40:51;;;;;;;10.70;2.72;;;;;;;6.84;100.00;101254.81;5094267;28;20039;-35
2022/11/25 07:43:17;;;;;;;6.73;2.47;;;;;;;6.87;100.00;101261.66;5093874;28;20628;-35
2022/11/25 07:45:42;;;;;;;7.23;2.77;;;;;;;6.79;100.00;101251.88;5094022;28;20032;-35
2022/11/25 07:48:07;;;;;;;3.97;1.63;;;;;;;6.93;100.00;101280.53;5094090;28;20036;-35
2022/11/25 07:50:33;;;;;;;4.87;2.13;;;;;;;6.86;100.00;101265.38;5094070;28;20093;-35
2022/11/25 07:52:58;;;;;;;5.30;2.23;;;;;;;6.94;100.00;101276.81;5094101;28;20031;-35
2022/11/25 07:55:23;;;;;;;6.97;2.17;;;;;;;6.92;100.00;101276.16;5093597;28;20455;-35
2022/11/25 07:57:49;;;;;;;8.27;2.20;;;;;;;6.94;100.00;101279.50;5093875;28;20024;-35
2022/11/25 08:00:14;;;;;;;5.50;2.03;;;;;;;6.99;100.00;101286.16;5092545;28;20059;-35
2022/11/25 08:02:40;;;;;;;11.18;2.95;;;;;;;7.01;100.00;101292.16;5094102;28;20099;-36
2022/11/25 08:05:06;;;;;;;9.83;2.10;;;;;;;7.01;100.00;101294.84;5094413;28;20024;-35
2022/11/25 08:07:31;;;;;;;8.55;2.10;;;;;;;6.99;100.00;101303.13;5094173;28;20110;-35
2022/11/25 08:09:56;;;;;;;6.87;2.23;;;;;;;6.88;100.00;101293.72;5093700;28;20039;-35
2022/11/25 08:12:21;;;;;;;5.53;1.67;;;;;;;6.97;100.00;101311.34;5093386;28;20024;-36
2022/11/25 08:14:47;;;;;;;5.67;1.90;;;;;;;7.05;100.00;101320.31;5093299;28;20052;-35
2022/11/25 08:17:12;;;;;;;8.20;1.90;;;;;;;7.01;100.00;101310.97;5093290;28;20052;-35
2022/11/25 08:19:39;;;;;;;6.20;2.03;;;;;;;7.07;100.00;101320.94;5093551;28;20028;-36
2022/11/25 08:22:05;;;;;;;6.72;2.22;;;;;;;7.08;100.00;101326.13;5094207;28;20027;-35
2022/11/25 08:24:30;;;;;;;6.85;2.10;;;;;;;7.12;100.00;101327.38;5093353;28;20024;-35
2022/11/25 08:26:57;;;;;;;6.30;2.33;;;;;;;7.09;100.00;101318.91;5092690;28;20051;-35
2022/11/25 08:29:23;;;;;;;6.22;2.08;;;;;;;7.21;100.00;101330.75;5093831;28;20040;-35
2022/11/25 08:31:48;;;;;;;4.45;2.03;;;;;;;7.28;100.00;101328.13;5093488;28;20024;-35
2022/11/25 08:34:20;;;;;;;5.83;2.00;;;;;;;7.29;100.00;101327.94;5093779;28;20100;-35
2022/11/25 08:36:45;;;;;;;6.00;1.90;;;;;;;7.28;100.00;101318.19;5092987;28;20392;-35
2022/11/25 08:39:11;;;;;;;6.13;2.00;;;;;;;7.38;100.00;101334.81;5092920;28;20024;-35
2022/11/25 08:41:37;;;;;;;6.28;1.98;;;;;;;7.35;100.00;101327.13;5093149;28;20030;-35
2022/11/25 08:44:05;;;;;;;7.68;2.28;;;;;;;7.34;100.00;101314.72;5093844;28;20036;-34
2022/11/25 08:46:35;;;;;;;7.55;3.33;;;;;;;7.51;100.00;101328.66;5093157;28;20024;-34
2022/11/25 08:49:01;;;;;;;8.73;2.65;;;;;;;7.53;100.00;101326.63;5093506;28;20048;-35
2022/11/25 08:51:28;;;;;;;;;;;;;;;7.63;100.00;101334.31;5093177;28;20107;-35
2022/11/25 08:53:54;;;;;;;7.82;2.45;;;;;;;7.60;100.00;101332.03;5093494;28;19912;-34
2022/11/25 08:56:21;;;;;;;6.20;2.40;;;;;;;7.63;100.00;101343.22;5093382;28;20035;-35
2022/11/25 08:58:50;;;;;;;7.22;2.72;;;;;;;7.57;100.00;101324.38;5093679;28;20039;-35
2022/11/25 09:01:17;;;;;;;6.70;2.55;;;;;;;7.74;100.00;101349.91;5092953;28;20122;-35
2022/11/25 09:03:46;;;;;;;7.05;2.40;;;;;;;7.76;100.00;101345.16;5092739;28;20028;-35
2022/11/25 09:06:12;;;;;;;6.95;2.45;;;;;;;7.86;100.00;101356.38;5092986;28;20024;-35
2022/11/25 09:08:38;;;;;;;4.80;2.03;;;;;;;7.93;100.00;101356.41;5093006;28;20036;-35
2022/11/25 09:11:05;;;;;;;7.20;2.58;;;;;;;7.95;100.00;101354.34;5092660;28;20056;-35
2022/11/25 09:13:31;;;;;;;6.95;2.70;;;;;;;7.96;100.00;101348.78;5092661;28;20032;-35
2022/11/25 09:15:57;;;;;;;13.37;2.63;;;;;;;8.08;100.00;101365.16;5092954;28;20046;-35
2022/11/25 09:18:25;;;;;;;;;;;;;;;8.17;100.00;101371.22;5093454;28;20165;-36
2022/11/25 09:20:51;;;;;;;7.07;2.50;;;;;;;8.19;100.00;101369.97;5092889;28;20356;-35
2022/11/25 09:23:18;;;;;;;6.80;2.33;;;;;;;8.17;100.00;101361.25;5092460;28;20492;-36
2022/11/25 09:25:54;;;;;;;7.18;2.20;;;;;;;8.27;100.00;101374.34;5093087;28;20035;-36
2022/11/25 09:28:21;;;;;;;4.60;1.90;;;;;;;8.34;100.00;101377.88;5093633;28;20356;-36
2022/11/25 09:30:47;;;;;;;6.53;2.20;;;;;;;8.42;100.00;101391.22;5092864;28;20078;-35
2022/11/25 09:33:12;;;;;;;7.30;2.42;;;;;;;8.48;100.00;101390.38;5093137;28;20044;-35
2022/11/25 09:35:38;;;;;;;7.78;2.38;;;;;;;8.48;100.00;101384.16;5092843;28;20028;-35
2022/11/25 09:38:03;;;;;;;5.77;2.43;;;;;;;8.54;100.00;101398.69;5095887;28;20028;-35
2022/11/25 09:40:46;;;;;;;7.77;2.57;;;;;;;8.59;100.00;101398.91;5096744;28;20039;-35
2022/11/25 09:46:42;;;;;;;6.80;2.58;;;;;;;8.74;100.00;101410.38;5096725;28;20105;-35
2022/11/25 09:49:13;;;;;;;6.93;2.22;;;;;;;8.74;100.00;101418.47;5096681;28;20077;-35
2022/11/25 09:51:51;;;;;;;7.72;2.10;;;;;;;8.81;100.00;101411.19;5096123;28;20039;-35
2022/11/25 09:54:28;;;;;;;6.32;2.22;;;;;;;8.89;100.00;101412.88;5096279;28;20028;-35
2022/11/25 09:57:23;;;;;;;5.32;2.05;;;;;;;8.96;100.00;101424.50;5096940;28;20063;-35
2022/11/25 09:59:54;;;;;;;6.78;2.20;;;;;;;8.99;100.00;101424.09;5034271;28;20042;-34
2022/11/25 10:02:42;;;;;;;8.95;2.35;;;;;;;9.08;100.00;101424.69;5033829;28;20131;-35
2022/11/25 10:05:31;;;;;;;5.72;2.10;;;;;;;9.11;100.00;101427.81;5034344;28;20029;-34
2022/11/25 10:08:08;;;;;;;6.50;2.25;;;;;;;9.16;100.00;101429.91;5033908;28;20032;-35
2022/11/25 10:10:43;;;;;;;8.13;2.00;;;;;;;9.22;100.00;101434.47;5033958;28;20509;-35
2022/11/25 10:13:18;;;;;;;8.25;2.20;;;;;;;9.25;100.00;101444.84;5034103;28;20189;-35
2022/11/25 10:15:47;;;;;;;8.18;2.35;;;;;;;9.29;100.00;101449.63;5033392;28;20120;-35
2022/11/25 10:18:22;;;;;;;9.65;2.22;;;;;;;9.33;100.00;101451.91;5034443;28;20083;-35
2022/11/25 10:20:50;;;;;;;7.63;2.33;;;;;;;9.35;100.00;101466.84;5033250;28;20037;-35
2022/11/25 10:23:22;;;;;;;5.95;1.92;;;;;;;9.42;100.00;101465.00;5033940;28;20037;-35
2022/11/25 10:25:52;;;;;;;8.82;2.58;;;;;;;9.47;100.00;101469.78;5033270;28;20624;-35
2022/11/25 10:28:29;;;;;;;5.28;2.03;;;;;;;9.52;100.00;101469.97;5033735;28;20152;-35
2022/11/25 10:31:15;;;;;;;6.85;2.40;;;;;;;9.58;100.00;101468.31;5033398;28;20041;-35
2022/11/25 10:33:56;;;;;;;6.93;2.40;;;;;;;9.65;100.00;101474.53;5033698;28;20033;-35
2022/11/25 10:36:38;;;;;;;6.20;2.15;;;;;;;9.62;100.00;101474.97;5054696;28;20497;-35
2022/11/25 10:39:12;;;;;;;4.70;1.85;;;;;;;9.73;100.00;101485.13;5095575;28;20028;-35
2022/11/25 10:41:45;;;;;;;5.88;2.50;;;;;;;9.75;100.00;101491.13;5095599;28;20024;-35
2022/11/25 10:44:38;;;;;;;8.50;2.83;;;;;;;9.85;100.00;101488.81;5095418;28;20028;-35
2022/11/25 10:47:21;;;;;;;6.30;2.10;;;;;;;9.87;100.00;101494.03;5093269;28;20441;-35
2022/11/25 10:50:18;;;;;;;5.45;1.83;;;;;;;9.92;100.00;101500.47;5095057;28;20034;-35
2022/11/25 10:52:58;;;;;;;6.28;2.03;;;;;;;9.96;100.00;101498.19;5095871;28;20491;-35
2022/11/25 10:55:26;;;;;;;10.43;2.30;;;;;;;9.91;100.00;101487.19;5095561;28;20051;-35
2022/11/25 10:57:53;;;;;;;5.78;1.88;;;;;;;9.99;100.00;101489.63;5095303;28;20039;-35
2022/11/25 11:00:30;;;;;;;7.95;2.13;;;;;;;10.03;100.00;101496.28;5094802;28;20026;-35
2022/11/25 11:02:57;;;;;;;4.95;2.13;;;;;;;10.05;100.00;101497.75;5095598;28;20414;-35
2022/11/25 11:05:29;;;;;;;5.15;1.98;;;;;;;10.09;100.00;101502.69;5095096;28;20210;-35
2022/11/25 11:08:16;;;;;;;7.70;2.47;;;;;;;10.11;100.00;101503.34;5095017;28;20464;-35
2022/11/25 11:10:41;;;;;;;6.93;2.83;;;;;;;10.16;100.00;101508.94;5095242;28;20024;-35
2022/11/25 11:13:23;;;;;;;9.50;2.22;;;;;;;10.14;100.00;101503.72;5094928;28;20085;-35
2022/11/25 11:15:50;;;;;;;7.68;2.35;;;;;;;10.22;100.00;101519.72;5095299;28;20484;-35
2022/11/25 11:18:21;;;;;;;7.03;2.17;;;;;;;10.24;100.00;101519.53;5095038;28;20448;-34
2022/11/25 11:20:50;;;;;;;6.38;1.70;;;;;;;10.30;100.00;101529.53;5095125;28;20081;-35
2022/11/25 11:23:16;;;;;;;6.35;2.30;;;;;;;10.32;99.49;101532.81;5094758;28;20043;-35
2022/11/25 11:25:53;;;;;;;5.68;2.10;;;;;;;10.32;99.45;101530.94;5094645;28;20024;-35
2022/11/25 11:28:34;;;;;;;10.13;2.35;;;;;;;10.40;100.00;101535.31;5095175;28;20382;-35
2022/11/25 11:31:31;;;;;;;5.97;2.03;;;;;;;10.43;100.00;101545.69;5094014;28;20435;-35
2022/11/25 11:34:02;;;;;;;6.00;1.70;;;;;;;10.43;100.00;101540.28;5094539;28;20019;-35
2022/11/25 11:36:43;;;;;;;8.15;2.05;;;;;;;10.41;100.00;101541.53;5095232;28;20036;-36
2022/11/25 11:39:20;;;;;;;6.32;1.92;;;;;;;10.51;99.58;101547.34;5094939;28;20032;-35